Address 0xf877df9b167444594806ab2986b902d37a74956c 2

 
 
Txn Hash Method
Block
From
To
Value [Txn Fee]
0x5c0f109ae14ac4738b7a60be6f82c91a899ae492451e02f12e6704b375954221List243013422022-01-29 11:09:488 mins ago0xf877df9b167444594806ab2986b902d37a74956cOUT 0x25a751bfb51560c2aadf4250de0730eb4eea50c40 MATIC0.010444192 44
0x4567548845a18f383106fecab6bcabbac5f585195a30bec07b7cb36d3e7b4a4dApprove243012182022-01-29 11:05:3212 mins ago0xf877df9b167444594806ab2986b902d37a74956cOUT 0xd50d167dd35d256e19e2fb76d6b9bf9f4c571a3e0 MATIC0.001515053791 31.037280116
0x39a5931ab9d622baeeee052957208d0c44d488d0bb50f1bed79c7237ade8b092Buy243010192022-01-29 10:58:4219 mins ago0xf877df9b167444594806ab2986b902d37a74956cOUT 0x25a751bfb51560c2aadf4250de0730eb4eea50c40 MATIC0.006447452 44
0x9c25e61f95a5c2ca0f068d4e02a7b72bd1ab7dd5d412e50b2de65952a57ed8c8Approve243009892022-01-29 10:57:3820 mins ago0xf877df9b167444594806ab2986b902d37a74956cOUT 0xc2132d05d31c914a87c6611c10748aeb04b58e8f0 MATIC0.002275856 44
0x56c362a4ab39aac89a7a4a8b8f8bc09e3dfeaf2f927bc8859c54b866e3241c47List242973362022-01-29 8:32:522 hrs 45 mins ago0xf877df9b167444594806ab2986b902d37a74956cOUT 0x25a751bfb51560c2aadf4250de0730eb4eea50c40 MATIC0.00949472 40
0x9763106c9dcea9677eeb88bab91a57afc2b7ecd88663bc0d5fb2a36674848467Approve242971492022-01-29 8:26:262 hrs 51 mins ago0xf877df9b167444594806ab2986b902d37a74956cOUT 0xd50d167dd35d256e19e2fb76d6b9bf9f4c571a3e0 MATIC0.001484882828 30.419200001
0xafdef73319772fc2614907ec2cb6a0d97725bace7d91c549ff51e81c574ae20bList242814692022-01-28 22:48:5312 hrs 29 mins ago0xf877df9b167444594806ab2986b902d37a74956cOUT 0x25a751bfb51560c2aadf4250de0730eb4eea50c40 MATIC0.006906147842 28.51800338
0x27dca491ff9c4a7b42fa95bebc0dbdab288bc676e72c7b0104d21954204fae4aApprove242813302022-01-28 22:39:5912 hrs 38 mins ago0xf877df9b167444594806ab2986b902d37a74956cOUT 0xd50d167dd35d256e19e2fb76d6b9bf9f4c571a3e0 MATIC0.00153240163 31.392666665
0xe172b7fc873433c7307a133affb898905849b6b182f9e71f81641b16bfa2cc81Buy242812392022-01-28 22:36:5312 hrs 41 mins ago0xf877df9b167444594806ab2986b902d37a74956cOUT 0x25a751bfb51560c2aadf4250de0730eb4eea50c40 MATIC0.0040593952 31.36
0x445497d2346f508bddebde58f4d34fb2adfc235816e8d1a7d732b3956196d005Approve242811882022-01-28 22:35:0712 hrs 43 mins ago0xf877df9b167444594806ab2986b902d37a74956cOUT 0xc2132d05d31c914a87c6611c10748aeb04b58e8f0 MATIC0.001622440959 31.359999999
0xc3840132b74668036a7e66987a2bcbdc9f78d619b307b56f6e83ff5d8ba85877Update Price242762732022-01-28 19:24:2115 hrs 53 mins ago0xf877df9b167444594806ab2986b902d37a74956cOUT 0x25a751bfb51560c2aadf4250de0730eb4eea50c40 MATIC0.000124075371 2.450000417
0xec7b3939595aef4bd58208c9b80cdf5144013d810d2436f5ac7cf13ee09032d2Update Price242761862022-01-28 19:19:4315 hrs 58 mins ago0xf877df9b167444594806ab2986b902d37a74956cOUT 0x25a751bfb51560c2aadf4250de0730eb4eea50c40 MATIC0.001643253935 32.447800001
0x47904347dd0b665ae810ad73f5791efc3b85d3987990c64fde200f6b4e921993List242735752022-01-28 17:41:2117 hrs 36 mins ago0xf877df9b167444594806ab2986b902d37a74956cOUT 0x25a751bfb51560c2aadf4250de0730eb4eea50c40 MATIC0.000593311681 2.450000336
0x1f14230ed4f075db77298495b1d4f915f26f09cd9a7e35f32081c0c6db3b66dbApprove242735542022-01-28 17:40:3917 hrs 37 mins ago0xf877df9b167444594806ab2986b902d37a74956cOUT 0xd50d167dd35d256e19e2fb76d6b9bf9f4c571a3e0 MATIC0.001426527099 29.223728845
0x0291d5de21c9e071953e3779987c870ceb2c5dce059f3c2edaad388a9f3ddd83List242732552022-01-28 17:30:2117 hrs 47 mins ago0xf877df9b167444594806ab2986b902d37a74956cOUT 0x25a751bfb51560c2aadf4250de0730eb4eea50c40 MATIC0.006922262489 28.584546635
0x31e520dc1dc244eaf7a37185e8cd62653b5ee627db561484e88924caaace180dApprove242732122022-01-28 17:28:5117 hrs 49 mins ago0xf877df9b167444594806ab2986b902d37a74956cOUT 0xd50d167dd35d256e19e2fb76d6b9bf9f4c571a3e0 MATIC0.00195256 40
0xd5a9e5946c8afab5abcfc732e3ce6c14c0192580ccfc534d0a1c1c11437bafe8Register242729112022-01-28 17:18:3317 hrs 59 mins ago0xf877df9b167444594806ab2986b902d37a74956cOUT 0x0d437a4d018e6365599f6c94c6c980ade29bb76c0 MATIC0.016446885021 29.479353414
0x987ee3a45209bc1cf2370382f27ceaa8b014039618a9c5caafcd688ed24e91b6Approve242728702022-01-28 17:17:0718 hrs 1 min ago0xf877df9b167444594806ab2986b902d37a74956cOUT 0xd50d167dd35d256e19e2fb76d6b9bf9f4c571a3e0 MATIC0.001484882532 30.419193932
0x75d84635090f46ea3ee90639523fbace13be0e26f44e4f9600058ebea1bab13eApprove242728632022-01-28 17:16:5318 hrs 1 min ago0xf877df9b167444594806ab2986b902d37a74956cOUT 0xd50d167dd35d256e19e2fb76d6b9bf9f4c571a3e0 MATIC0.001484882577 30.419194847
0xaadec9fac9f8675b1eb5690eb026e6a311f7f37a1ea671b5142da2c4a572cdceTake Back242723242022-01-28 16:56:1518 hrs 22 mins ago0xf877df9b167444594806ab2986b902d37a74956cOUT 0xfb7316fb56fd2a8fdb925321b8f616eef106db330 MATIC0.00528281218 32.340250017
0x442ee4f47f9b35e677b02b226756f10f612d9f45e8b2a102d1e122c51153d6b40x80dadbb2242631562022-01-28 11:15:101 day 3 mins ago0xf877df9b167444594806ab2986b902d37a74956cOUT 0xfb7316fb56fd2a8fdb925321b8f616eef106db330 MATIC0.006662060588 30.38000004
0x9481ed59d8118e10d147fda953a6c7ba99aa0e72c8bee17f9dbe67f44ee0fc85Approve242631362022-01-28 11:14:301 day 3 mins ago0xf877df9b167444594806ab2986b902d37a74956cOUT 0xd50d167dd35d256e19e2fb76d6b9bf9f4c571a3e0 MATIC0.001515053651 31.03727724
0x474019a9d4eafa810f872a1235e9c2e5f93f9dc7d6c0c43c423628d40b60ca120x32464be8242631042022-01-28 11:13:261 day 4 mins ago0xf877df9b167444594806ab2986b902d37a74956cOUT Kyber Swap: Aggregation Router 20 MATIC0.005075282665 30.379999192
0x5a8867704cac2a03910cf23a21ae46f4cf3ead05fa39cffeb99c0b6bec525df8Buy242629922022-01-28 11:08:531 day 9 mins ago0xf877df9b167444594806ab2986b902d37a74956cOUT 0x25a751bfb51560c2aadf4250de0730eb4eea50c40 MATIC0.004394231606 29.988000016
0x582b81ba7a3989a37b3ee6eb712e1a359cd16e70397014af74c2f3ab94e5a86dApprove242629672022-01-28 11:07:591 day 10 mins ago0xf877df9b167444594806ab2986b902d37a74956cOUT 0xc2132d05d31c914a87c6611c10748aeb04b58e8f0 MATIC0.00155769436 30.115504611
[ Download CSV Export 
Latest 5 internal transactions
Parent Txn Hash Block From To Value
0xf4568e9cedd3fbaa2e08ef3a8d13f95b2090ab146f60de024df390b247155cc9239965052022-01-21 18:57:097 days 16 hrs ago 0xd12bcdfb9a39be79da3bdf02557efdcd5ca59e770xf877df9b167444594806ab2986b902d37a74956c10.780665976288549372 MATIC
0x738b32b62d6e012d0779fa617c482fb3add450483c54d10ecb0d4bef665fc321239140242022-01-19 17:07:109 days 18 hrs ago 0xd12bcdfb9a39be79da3bdf02557efdcd5ca59e770xf877df9b167444594806ab2986b902d37a74956c2.406152893581745396 MATIC
0xcde373ffab7679209ae60d80b96cbbf40ff6d0299de9a376fc7fe42eb4a47b3c233993182022-01-06 10:08:4323 days 1 hr ago QuickSwap: Router0xf877df9b167444594806ab2986b902d37a74956c5 MATIC
0xa006312b01a26e7d2677b8f53050529c33dac683a0e2ed363377b5b918eed6e0233173942022-01-03 23:19:3125 days 11 hrs ago QuickSwap: Router0xf877df9b167444594806ab2986b902d37a74956c1 MATIC
0x5e703355c33c2cdc2c4ee208a082a4d0c53cc0645959b0708484fcf1bb1bbae7202789652021-10-16 13:52:30104 days 21 hrs ago Polygon: Airdrop0xf877df9b167444594806ab2986b902d37a74956c0.02 MATIC
[ Download CSV Export 
Loading

Contract Name:
0 MATIC

Compiler Version
0

Optimization Enabled:
0 MATIC

Other Settings:
-NA-
Block Transaction Gas Used Reward
Age Block Fee Address BC Fee Address Voting Power Jailed Incoming
Block Uncle Number Difficulty Gas Used Reward
Loading
Loading
Make sure to use the "Vote Down" button for any spammy posts, and the "Vote Up" for interesting conversations.